Time;durP1;ratioP1;P1;durP2;ratioP2;P2;SDS_P1;SDS_P2;PMS_P1;PMS_P2;Temp;Humidity;BMP_temperature;BMP_pressure;BME280_temperature;BME280_humidity;BME280_pressure;Samples;Min_cycle;Max_cycle;Signal;HPM_P1;HPM_P2
2021/03/11 00:00:23;;;;;;;31.08;21.42;;;;;;;;;;5035612;28;20194;-51
2021/03/11 00:02:48;;;;;;;28.38;20.77;;;;;;;;;;5036318;28;20171;-52
2021/03/11 00:05:15;;;;;;;32.30;18.40;;;;;;;;;;5036240;28;20639;-51
2021/03/11 00:07:41;;;;;;;26.20;17.50;;;;;;;;;;5035335;28;20433;-51
2021/03/11 00:10:12;;;;;;;31.17;19.75;;;;;;;;;;5036144;28;20167;-50
2021/03/11 00:12:42;;;;;;;28.65;17.35;;;;;;;;;;5035645;28;20168;-49
2021/03/11 00:15:10;;;;;;;31.83;20.67;;;;;;;;;;5032751;28;20173;-50
2021/03/11 00:17:36;;;;;;;29.57;19.27;;;;;;;;;;5035523;28;20421;-51
2021/03/11 00:20:05;;;;;;;34.77;19.43;;;;;;;;;;5036084;28;20402;-51
2021/03/11 00:22:31;;;;;;;27.05;17.88;;;;;;;;;;5035413;28;20399;-54
2021/03/11 00:24:56;;;;;;;28.00;18.00;;;;;;;;;;5016066;28;20227;-52
2021/03/11 00:27:22;;;;;;;29.07;17.40;;;;;;;;;;5015278;28;20415;-53
2021/03/11 00:29:48;;;;;;;32.07;17.77;;;;;;;;;;5013448;28;20414;-50
2021/03/11 00:32:14;;;;;;;29.83;16.80;;;;;;;;;;5015128;28;21078;-51
2021/03/11 00:34:40;;;;;;;29.93;16.53;;;;;;;;;;5015146;28;20917;-50
2021/03/11 00:37:06;;;;;;;26.37;16.67;;;;;;;;;;5025831;28;20418;-51
2021/03/11 00:39:32;;;;;;;25.10;16.77;;;;;;;;;;5034917;28;20420;-51
2021/03/11 00:41:58;;;;;;;25.20;15.60;;;;;;;;;;5034805;28;20885;-52
2021/03/11 00:44:24;;;;;;;26.10;16.10;;;;;;;;;;5034686;28;20459;-51
2021/03/11 00:46:50;;;;;;;24.43;15.83;;;;;;;;;;5034486;28;20402;-55
2021/03/11 00:49:16;;;;;;;23.87;16.07;;;;;;;;;;5033078;28;20512;-52
2021/03/11 00:51:42;;;;;;;27.53;17.30;;;;;;;;;;5034687;28;21136;-51
2021/03/11 00:54:08;;;;;;;26.47;15.23;;;;;;;;;;5034597;28;20414;-51
2021/03/11 00:57:09;;;;;;;27.30;16.67;;;;;;;;;;5034641;28;20767;-50
2021/03/11 00:59:35;;;;;;;28.77;17.10;;;;;;;;;;5033199;28;20415;-51
2021/03/11 01:02:01;;;;;;;20.97;15.27;;;;;;;;;;5033993;28;20434;-51
2021/03/11 01:04:27;;;;;;;24.77;16.00;;;;;;;;;;5032050;28;21417;-51
2021/03/11 01:06:53;;;;;;;23.63;15.70;;;;;;;;;;5034393;28;20461;-51
2021/03/11 01:09:19;;;;;;;26.57;16.20;;;;;;;;;;5033697;28;20485;-53
2021/03/11 01:11:45;;;;;;;25.02;17.05;;;;;;;;;;5034341;28;20421;-53
2021/03/11 01:14:11;;;;;;;24.43;15.53;;;;;;;;;;5033935;28;20199;-52
2021/03/11 01:16:37;;;;;;;24.40;16.50;;;;;;;;;;5034485;28;20409;-51
2021/03/11 01:19:04;;;;;;;25.83;16.30;;;;;;;;;;5034689;28;20428;-51
2021/03/11 01:21:30;;;;;;;26.23;15.70;;;;;;;;;;5035168;28;20473;-51
2021/03/11 01:23:56;;;;;;;25.87;16.57;;;;;;;;;;5034620;28;20482;-52
2021/03/11 01:26:22;;;;;;;30.77;18.20;;;;;;;;;;5034640;28;20406;-53
2021/03/11 01:28:47;;;;;;;27.27;17.37;;;;;;;;;;5033737;28;21128;-50
2021/03/11 01:31:13;;;;;;;31.93;17.60;;;;;;;;;;5034013;28;20482;-50
2021/03/11 01:33:39;;;;;;;26.60;16.20;;;;;;;;;;5030871;28;20924;-51
2021/03/11 01:36:06;;;;;;;28.43;17.50;;;;;;;;;;5033402;28;20442;-49
2021/03/11 01:38:31;;;;;;;28.33;17.30;;;;;;;;;;5034219;28;20441;-51
2021/03/11 01:40:57;;;;;;;25.40;17.33;;;;;;;;;;5034968;28;20172;-50
2021/03/11 01:43:23;;;;;;;27.07;16.70;;;;;;;;;;5039057;28;20495;-50
2021/03/11 01:45:49;;;;;;;26.60;17.17;;;;;;;;;;5038557;28;20407;-50
2021/03/11 01:48:15;;;;;;;27.60;18.47;;;;;;;;;;5038199;28;20429;-51
2021/03/11 01:50:42;;;;;;;25.77;17.60;;;;;;;;;;5038993;28;20407;-51
2021/03/11 01:53:09;;;;;;;26.83;15.98;;;;;;;;;;5037799;28;20477;-52
2021/03/11 01:55:36;;;;;;;20.87;14.97;;;;;;;;;;5038270;28;20231;-51
2021/03/11 01:58:02;;;;;;;30.20;15.70;;;;;;;;;;5037802;28;20480;-51
2021/03/11 02:00:28;;;;;;;28.85;17.25;;;;;;;;;;5038385;28;20429;-51
2021/03/11 02:02:55;;;;;;;25.87;16.10;;;;;;;;;;5035530;28;20180;-51
2021/03/11 02:05:22;;;;;;;26.27;16.67;;;;;;;;;;5037381;28;21073;-51
2021/03/11 02:07:48;;;;;;;28.80;16.83;;;;;;;;;;5037352;28;20423;-50
2021/03/11 02:10:17;;;;;;;26.23;17.13;;;;;;;;;;5038040;28;20168;-50
2021/03/11 02:13:02;;;;;;;26.20;16.70;;;;;;;;;;5037833;28;20259;-53
2021/03/11 02:15:31;;;;;;;20.27;14.15;;;;;;;;;;5037596;28;20195;-52
2021/03/11 02:18:01;;;;;;;24.70;15.33;;;;;;;;;;5037644;28;20193;-50
2021/03/11 02:20:27;;;;;;;19.17;14.40;;;;;;;;;;5037399;28;20464;-50
2021/03/11 02:23:12;;;;;;;18.50;12.53;;;;;;;;;;5038029;28;20967;-51
2021/03/11 02:25:43;;;;;;;21.40;13.43;;;;;;;;;;5036744;28;20421;-51
2021/03/11 02:28:28;;;;;;;19.33;12.67;;;;;;;;;;5036601;28;20424;-54
2021/03/11 02:30:55;;;;;;;19.80;12.30;;;;;;;;;;5036907;28;20404;-50
2021/03/11 02:33:22;;;;;;;19.70;12.40;;;;;;;;;;5033902;28;20435;-54
2021/03/11 02:35:49;;;;;;;20.13;12.10;;;;;;;;;;5037184;28;20411;-51
2021/03/11 02:38:15;;;;;;;20.00;13.57;;;;;;;;;;5036963;28;20429;-52
2021/03/11 02:40:42;;;;;;;18.47;12.53;;;;;;;;;;5037184;28;20400;-58
2021/03/11 02:43:12;;;;;;;17.07;12.20;;;;;;;;;;5037545;28;20917;-53
2021/03/11 02:45:38;;;;;;;21.40;10.93;;;;;;;;;;5036954;28;20415;-50
2021/03/11 02:48:05;;;;;;;18.13;12.00;;;;;;;;;;5036537;28;20438;-64
2021/03/11 02:50:32;;;;;;;19.80;11.30;;;;;;;;;;5037173;28;20408;-51
2021/03/11 02:52:59;;;;;;;18.93;11.37;;;;;;;;;;5037027;28;20399;-50
2021/03/11 02:55:26;;;;;;;16.60;11.43;;;;;;;;;;5036931;28;20423;-50
2021/03/11 02:57:53;;;;;;;15.37;11.50;;;;;;;;;;5036872;28;20413;-50
2021/03/11 03:00:19;;;;;;;17.27;10.67;;;;;;;;;;5036760;28;20429;-52
2021/03/11 03:02:46;;;;;;;14.77;10.63;;;;;;;;;;5033433;28;20402;-51
2021/03/11 03:05:16;;;;;;;14.30;10.30;;;;;;;;;;5036896;28;20471;-51
2021/03/11 03:07:45;;;;;;;16.60;9.60;;;;;;;;;;5036640;28;20417;-59
2021/03/11 03:10:12;;;;;;;12.50;8.93;;;;;;;;;;5036751;28;20773;-54
2021/03/11 03:12:38;;;;;;;12.60;8.60;;;;;;;;;;5036557;28;20416;-50
2021/03/11 03:15:05;;;;;;;13.27;8.60;;;;;;;;;;5036578;28;20477;-50
2021/03/11 03:17:32;;;;;;;11.90;8.30;;;;;;;;;;5036332;28;20402;-56
2021/03/11 03:19:59;;;;;;;10.20;8.30;;;;;;;;;;5036809;28;20419;-51
2021/03/11 03:22:27;;;;;;;11.67;7.90;;;;;;;;;;5037172;28;20412;-55
2021/03/11 03:24:53;;;;;;;9.53;6.97;;;;;;;;;;5036312;28;20466;-50
2021/03/11 03:27:19;;;;;;;10.47;8.63;;;;;;;;;;5036141;28;20497;-57
2021/03/11 03:29:45;;;;;;;10.00;7.67;;;;;;;;;;5036164;28;20463;-50
2021/03/11 03:32:11;;;;;;;8.70;7.07;;;;;;;;;;5036659;28;20500;-53
2021/03/11 03:34:37;;;;;;;8.90;6.60;;;;;;;;;;5032534;28;20464;-52
2021/03/11 03:37:04;;;;;;;8.07;7.10;;;;;;;;;;5033007;28;20431;-54
2021/03/11 03:39:30;;;;;;;7.97;6.50;;;;;;;;;;5035842;28;20437;-53
2021/03/11 03:41:56;;;;;;;8.73;6.53;;;;;;;;;;5036500;28;20405;-51
2021/03/11 03:44:25;;;;;;;6.47;5.87;;;;;;;;;;5036050;28;20456;-51
2021/03/11 03:46:52;;;;;;;6.90;6.20;;;;;;;;;;5036519;28;20420;-50
2021/03/11 03:49:19;;;;;;;8.10;6.53;;;;;;;;;;5035546;28;20927;-55
2021/03/11 03:51:49;;;;;;;7.00;6.27;;;;;;;;;;5036067;28;20497;-50
2021/03/11 03:54:26;;;;;;;6.50;5.47;;;;;;;;;;5035653;28;20428;-53
2021/03/11 03:56:55;;;;;;;6.60;5.83;;;;;;;;;;5035917;28;20928;-52
2021/03/11 03:59:23;;;;;;;6.30;5.70;;;;;;;;;;5034827;28;20411;-51
2021/03/11 04:01:52;;;;;;;7.40;6.03;;;;;;;;;;5035511;28;20464;-52
2021/03/11 04:04:18;;;;;;;9.10;6.33;;;;;;;;;;5031621;28;20500;-53
2021/03/11 04:06:44;;;;;;;7.40;6.23;;;;;;;;;;5035868;28;20494;-51
2021/03/11 04:09:12;;;;;;;7.93;6.93;;;;;;;;;;5035507;28;20760;-51
2021/03/11 04:11:38;;;;;;;7.33;6.23;;;;;;;;;;5034915;28;20436;-51
2021/03/11 04:14:05;;;;;;;9.33;6.97;;;;;;;;;;5035815;28;20411;-52
2021/03/11 04:16:32;;;;;;;8.00;7.13;;;;;;;;;;5035694;28;20446;-52
2021/03/11 04:18:59;;;;;;;8.17;6.97;;;;;;;;;;5036062;28;20453;-50
2021/03/11 04:21:25;;;;;;;8.07;7.27;;;;;;;;;;5035525;28;20414;-50
2021/03/11 04:23:52;;;;;;;7.30;6.60;;;;;;;;;;5035690;28;20455;-50
2021/03/11 04:26:18;;;;;;;7.63;6.70;;;;;;;;;;5035705;28;20430;-52
2021/03/11 04:28:44;;;;;;;8.00;6.80;;;;;;;;;;5035075;28;20420;-54
2021/03/11 04:31:10;;;;;;;9.13;7.40;;;;;;;;;;5035266;28;20428;-53
2021/03/11 04:33:37;;;;;;;10.00;7.93;;;;;;;;;;5030570;28;20502;-53
2021/03/11 04:36:04;;;;;;;9.70;7.50;;;;;;;;;;5035012;28;21042;-50
2021/03/11 04:38:30;;;;;;;8.90;7.60;;;;;;;;;;5034725;28;20547;-53
2021/03/11 04:40:56;;;;;;;8.00;7.20;;;;;;;;;;5035526;28;20472;-53
2021/03/11 04:43:22;;;;;;;9.97;7.87;;;;;;;;;;5035321;28;20459;-54
2021/03/11 04:45:49;;;;;;;12.53;7.97;;;;;;;;;;5035741;28;20441;-53
2021/03/11 04:48:15;;;;;;;8.40;6.60;;;;;;;;;;5034880;28;20881;-55
2021/03/11 04:50:42;;;;;;;10.70;7.73;;;;;;;;;;5034894;28;20407;-52
2021/03/11 04:53:08;;;;;;;7.80;7.00;;;;;;;;;;5035509;28;20403;-50
2021/03/11 04:55:35;;;;;;;8.60;7.60;;;;;;;;;;5035383;28;20409;-50
2021/03/11 04:58:01;;;;;;;7.37;6.70;;;;;;;;;;5034888;28;20508;-54
2021/03/11 05:00:27;;;;;;;7.70;6.90;;;;;;;;;;5034508;28;20442;-55
2021/03/11 05:02:55;;;;;;;10.33;7.27;;;;;;;;;;5032794;28;20414;-55
2021/03/11 05:05:25;;;;;;;6.83;6.30;;;;;;;;;;5034144;28;20408;-54
2021/03/11 05:07:51;;;;;;;7.70;6.50;;;;;;;;;;5034989;28;20419;-55
2021/03/11 05:10:17;;;;;;;7.10;6.40;;;;;;;;;;5035091;28;20476;-55
2021/03/11 05:12:43;;;;;;;6.57;5.97;;;;;;;;;;5034803;28;20393;-55
2021/03/11 05:15:10;;;;;;;7.17;6.30;;;;;;;;;;5034826;28;20915;-55
2021/03/11 05:17:36;;;;;;;9.07;6.90;;;;;;;;;;5034261;28;20474;-53
2021/03/11 05:20:02;;;;;;;6.60;6.00;;;;;;;;;;5034896;28;20434;-53
2021/03/11 05:22:28;;;;;;;7.80;5.63;;;;;;;;;;5034322;28;20433;-56
2021/03/11 05:24:54;;;;;;;7.47;6.73;;;;;;;;;;5035180;28;20466;-56
2021/03/11 05:27:20;;;;;;;6.97;6.27;;;;;;;;;;5034700;28;20449;-59
2021/03/11 05:29:46;;;;;;;7.30;6.60;;;;;;;;;;5034945;28;20407;-54
2021/03/11 05:32:12;;;;;;;7.93;7.10;;;;;;;;;;5035581;28;21021;-54
2021/03/11 05:34:38;;;;;;;7.50;6.77;;;;;;;;;;5029398;28;20458;-53
2021/03/11 05:37:04;;;;;;;7.40;6.57;;;;;;;;;;5033802;28;20437;-51
2021/03/11 05:39:30;;;;;;;6.67;5.97;;;;;;;;;;5033955;28;20425;-50
2021/03/11 05:41:56;;;;;;;7.70;6.47;;;;;;;;;;5034339;28;20412;-50
2021/03/11 05:44:22;;;;;;;7.73;6.33;;;;;;;;;;5033085;28;20860;-50
2021/03/11 05:46:48;;;;;;;8.70;6.90;;;;;;;;;;5034418;28;20404;-51
2021/03/11 05:49:16;;;;;;;9.73;8.73;;;;;;;;;;5033858;28;20483;-52
2021/03/11 05:51:42;;;;;;;7.63;6.30;;;;;;;;;;5034113;28;20435;-51
2021/03/11 05:54:08;;;;;;;13.40;6.80;;;;;;;;;;5034491;28;20900;-53
2021/03/11 05:56:34;;;;;;;8.93;6.73;;;;;;;;;;5034251;28;20894;-54
2021/03/11 05:59:02;;;;;;;10.30;7.10;;;;;;;;;;5033483;28;20439;-53
2021/03/11 06:01:30;;;;;;;9.83;7.63;;;;;;;;;;5033912;28;20940;-60
2021/03/11 06:03:56;;;;;;;10.07;7.13;;;;;;;;;;5032146;28;20470;-52
2021/03/11 06:06:23;;;;;;;8.87;7.27;;;;;;;;;;5033885;28;20408;-51
2021/03/11 06:08:53;;;;;;;9.40;7.43;;;;;;;;;;5032975;28;20823;-53
2021/03/11 06:11:20;;;;;;;8.50;7.13;;;;;;;;;;5032411;28;20400;-53
2021/03/11 06:13:47;;;;;;;9.90;6.93;;;;;;;;;;5034107;28;20409;-55
2021/03/11 06:16:16;;;;;;;6.90;6.20;;;;;;;;;;5034180;28;20402;-51
2021/03/11 06:18:43;;;;;;;8.87;7.27;;;;;;;;;;5033055;28;20428;-55
2021/03/11 06:21:09;;;;;;;8.47;7.10;;;;;;;;;;5032229;28;20835;-53
2021/03/11 06:23:35;;;;;;;10.40;7.23;;;;;;;;;;5032853;28;20801;-52
2021/03/11 06:26:01;;;;;;;9.13;7.10;;;;;;;;;;5033401;28;20407;-64
2021/03/11 06:28:49;;;;;;;8.27;6.03;;;;;;;;;;5035594;28;20427;-54
2021/03/11 06:31:30;;;;;;;7.73;6.20;;;;;;;;;;5036845;28;20895;-53
2021/03/11 06:33:57;;;;;;;7.60;6.47;;;;;;;;;;5033342;28;20457;-51
2021/03/11 06:36:24;;;;;;;7.90;6.83;;;;;;;;;;5036513;28;20751;-52
2021/03/11 06:38:50;;;;;;;9.50;7.57;;;;;;;;;;5036394;28;20494;-52
2021/03/11 06:41:17;;;;;;;7.87;6.80;;;;;;;;;;5035897;28;20500;-52
2021/03/11 06:44:15;;;;;;;8.10;6.33;;;;;;;;;;5036963;28;20458;-52
2021/03/11 06:46:56;;;;;;;6.50;5.73;;;;;;;;;;5004629;28;20494;-54
2021/03/11 06:49:22;;;;;;;8.40;7.00;;;;;;;;;;5036759;28;20418;-55
2021/03/11 06:51:48;;;;;;;5.77;5.27;;;;;;;;;;5035727;28;20773;-54
2021/03/11 06:54:14;;;;;;;8.57;5.93;;;;;;;;;;5035645;28;20847;-56
2021/03/11 06:56:43;;;;;;;6.57;5.23;;;;;;;;;;5036307;28;20466;-56
2021/03/11 06:59:09;;;;;;;6.97;5.70;;;;;;;;;;5035281;28;20427;-51
2021/03/11 07:01:36;;;;;;;6.57;5.73;;;;;;;;;;5036058;28;20915;-51
2021/03/11 07:04:02;;;;;;;7.93;5.17;;;;;;;;;;5032322;28;20476;-56
2021/03/11 07:06:38;;;;;;;7.20;5.97;;;;;;;;;;5035305;28;20764;-60
2021/03/11 07:09:05;;;;;;;6.53;5.17;;;;;;;;;;5035779;28;20990;-54
2021/03/11 07:11:31;;;;;;;7.07;5.70;;;;;;;;;;5036510;28;20915;-52
2021/03/11 07:13:58;;;;;;;5.40;4.90;;;;;;;;;;5037061;28;20413;-52
2021/03/11 07:16:25;;;;;;;6.93;5.20;;;;;;;;;;5037573;28;20441;-52
2021/03/11 07:19:10;;;;;;;5.37;4.87;;;;;;;;;;5035249;28;20433;-52
2021/03/11 07:21:40;;;;;;;6.63;4.93;;;;;;;;;;5037286;28;20407;-52
2021/03/11 07:24:06;;;;;;;6.00;4.93;;;;;;;;;;5036097;28;20455;-52
2021/03/11 07:26:32;;;;;;;7.27;6.60;;;;;;;;;;5036227;28;20915;-52
2021/03/11 07:29:14;;;;;;;4.73;4.33;;;;;;;;;;5035182;28;20423;-53
2021/03/11 07:31:40;;;;;;;7.00;5.80;;;;;;;;;;5034461;28;20508;-52
2021/03/11 07:34:06;;;;;;;6.20;5.33;;;;;;;;;;5032633;28;20444;-52
2021/03/11 07:36:32;;;;;;;6.10;5.60;;;;;;;;;;5035010;28;20471;-52
2021/03/11 07:38:58;;;;;;;6.30;5.70;;;;;;;;;;5034612;28;20432;-52
2021/03/11 07:41:24;;;;;;;5.73;4.90;;;;;;;;;;5036712;28;20401;-53
2021/03/11 07:43:50;;;;;;;6.57;5.93;;;;;;;;;;5035795;28;20983;-53
2021/03/11 07:46:17;;;;;;;6.83;6.13;;;;;;;;;;5035330;28;20405;-53
2021/03/11 07:48:43;;;;;;;6.90;5.77;;;;;;;;;;5035043;28;20937;-51
2021/03/11 07:51:09;;;;;;;7.13;6.43;;;;;;;;;;5034771;28;20409;-52
2021/03/11 07:53:35;;;;;;;9.20;6.60;;;;;;;;;;5032200;28;20760;-53
2021/03/11 07:56:01;;;;;;;8.10;6.63;;;;;;;;;;5011871;28;20450;-54
2021/03/11 07:58:27;;;;;;;8.37;6.20;;;;;;;;;;5015125;28;20432;-54
2021/03/11 08:00:54;;;;;;;5.93;5.33;;;;;;;;;;5015414;28;20432;-53
2021/03/11 08:03:24;;;;;;;6.67;6.00;;;;;;;;;;5022893;28;20461;-52
2021/03/11 08:05:52;;;;;;;5.87;5.27;;;;;;;;;;5036003;28;20398;-53
2021/03/11 08:08:22;;;;;;;5.77;5.20;;;;;;;;;;5033297;28;20469;-53
2021/03/11 08:10:54;;;;;;;5.33;4.87;;;;;;;;;;5033200;28;20398;-51
2021/03/11 08:13:36;;;;;;;4.50;4.10;;;;;;;;;;5037678;28;20412;-54
2021/03/11 08:16:22;;;;;;;4.87;4.43;;;;;;;;;;5040094;28;20425;-53
2021/03/11 08:18:53;;;;;;;3.70;3.40;;;;;;;;;;5040117;28;20427;-54
2021/03/11 08:21:25;;;;;;;4.27;3.97;;;;;;;;;;5040175;28;20506;-54
2021/03/11 08:23:55;;;;;;;4.40;4.00;;;;;;;;;;5039885;28;20462;-53
2021/03/11 08:26:39;;;;;;;4.70;4.07;;;;;;;;;;5032499;28;20773;-52
2021/03/11 08:29:22;;;;;;;5.03;4.03;;;;;;;;;;5031365;28;20572;-51
2021/03/11 08:31:48;;;;;;;4.10;3.70;;;;;;;;;;5033122;28;20502;-52
2021/03/11 08:34:33;;;;;;;6.60;3.90;;;;;;;;;;5032491;28;20430;-55
2021/03/11 08:37:12;;;;;;;4.17;3.73;;;;;;;;;;5039372;28;20509;-56
2021/03/11 08:39:38;;;;;;;9.30;4.47;;;;;;;;;;5040134;28;20513;-53
2021/03/11 08:42:24;;;;;;;4.73;4.33;;;;;;;;;;5040516;28;20434;-53
2021/03/11 08:44:50;;;;;;;6.67;5.30;;;;;;;;;;5039464;28;20519;-53
2021/03/11 08:47:16;;;;;;;4.97;4.40;;;;;;;;;;5037733;28;20416;-54
2021/03/11 08:49:42;;;;;;;4.83;4.40;;;;;;;;;;5035664;28;20894;-55
2021/03/11 08:52:29;;;;;;;5.17;4.70;;;;;;;;;;5039260;28;20459;-55
2021/03/11 08:55:15;;;;;;;5.57;4.50;;;;;;;;;;5038994;28;20902;-55
2021/03/11 08:57:44;;;;;;;8.07;4.13;;;;;;;;;;5037681;28;20963;-55
2021/03/11 09:00:10;;;;;;;4.27;3.97;;;;;;;;;;5038371;28;20924;-55
2021/03/11 09:02:36;;;;;;;4.83;4.43;;;;;;;;;;5036189;28;20438;-55
2021/03/11 09:05:04;;;;;;;6.90;4.30;;;;;;;;;;5038251;28;20525;-55
2021/03/11 09:07:32;;;;;;;5.07;4.57;;;;;;;;;;5038637;28;20878;-54
2021/03/11 09:09:59;;;;;;;7.30;4.00;;;;;;;;;;5039069;28;20395;-54
2021/03/11 09:12:36;;;;;;;6.20;3.50;;;;;;;;;;5039702;28;20890;-53
2021/03/11 09:15:05;;;;;;;8.83;4.23;;;;;;;;;;5039588;28;20424;-53
2021/03/11 09:17:34;;;;;;;8.13;3.37;;;;;;;;;;5039345;28;20462;-53
2021/03/11 09:20:01;;;;;;;5.00;3.17;;;;;;;;;;5021533;28;20442;-54
2021/03/11 09:22:37;;;;;;;5.27;2.60;;;;;;;;;;5020104;28;20411;-55
2021/03/11 09:25:14;;;;;;;3.40;2.57;;;;;;;;;;5020436;28;20469;-55
2021/03/11 09:27:41;;;;;;;7.73;2.47;;;;;;;;;;5021079;28;20442;-52
2021/03/11 09:30:16;;;;;;;24.43;2.80;;;;;;;;;;5021336;28;20407;-54
2021/03/11 09:32:42;;;;;;;8.50;2.50;;;;;;;;;;5022785;28;20408;-51
2021/03/11 09:35:10;;;;;;;14.90;2.97;;;;;;;;;;5040771;28;20406;-52
2021/03/11 09:37:43;;;;;;;4.03;2.47;;;;;;;;;;5040619;28;20441;-52
2021/03/11 09:40:10;;;;;;;14.30;3.00;;;;;;;;;;5040490;28;20402;-57
2021/03/11 09:42:35;;;;;;;9.37;2.27;;;;;;;;;;5039778;28;20488;-57
2021/03/11 09:45:01;;;;;;;6.40;2.30;;;;;;;;;;5040117;28;20461;-55
2021/03/11 09:47:28;;;;;;;5.93;2.37;;;;;;;;;;5040102;28;20434;-52
2021/03/11 09:50:07;;;;;;;9.43;2.77;;;;;;;;;;5040276;28;20413;-55
2021/03/11 09:52:53;;;;;;;5.27;2.97;;;;;;;;;;5040990;28;20928;-52
2021/03/11 09:55:19;;;;;;;7.27;2.07;;;;;;;;;;5040382;28;20428;-53
2021/03/11 09:57:45;;;;;;;6.93;2.10;;;;;;;;;;5039374;28;20457;-56
2021/03/11 10:00:11;;;;;;;9.97;2.53;;;;;;;;;;5039518;28;20871;-54
2021/03/11 10:02:51;;;;;;;7.53;2.63;;;;;;;;;;5037254;28;20430;-54
2021/03/11 10:05:17;;;;;;;4.43;2.03;;;;;;;;;;5043433;28;20462;-56
2021/03/11 10:07:43;;;;;;;5.80;2.10;;;;;;;;;;5042768;28;20419;-54
2021/03/11 10:10:13;;;;;;;7.77;2.70;;;;;;;;;;5042724;28;20400;-52
2021/03/11 10:12:41;;;;;;;6.37;2.13;;;;;;;;;;5042704;28;20783;-52
2021/03/11 10:15:08;;;;;;;7.53;2.03;;;;;;;;;;5042151;28;20954;-52
2021/03/11 10:17:34;;;;;;;8.20;2.53;;;;;;;;;;5042811;28;20437;-52
2021/03/11 10:20:18;;;;;;;7.17;3.13;;;;;;;;;;5043517;28;20410;-52
2021/03/11 10:22:44;;;;;;;4.57;2.00;;;;;;;;;;5043211;28;20539;-52
2021/03/11 10:25:16;;;;;;;7.83;2.63;;;;;;;;;;5043832;28;20771;-52
2021/03/11 10:27:44;;;;;;;8.00;3.00;;;;;;;;;;5040544;28;20480;-52
2021/03/11 10:30:23;;;;;;;11.13;2.50;;;;;;;;;;5042803;28;20430;-53
2021/03/11 10:32:53;;;;;;;4.90;2.50;;;;;;;;;;5043213;28;20432;-52
2021/03/11 10:35:46;;;;;;;11.73;2.87;;;;;;;;;;5044846;28;20418;-53
2021/03/11 10:38:23;;;;;;;12.50;3.03;;;;;;;;;;5018106;28;20456;-52
2021/03/11 10:40:50;;;;;;;10.30;3.03;;;;;;;;;;5024527;28;20402;-52
2021/03/11 10:43:20;;;;;;;8.90;3.47;;;;;;;;;;5024485;28;20429;-53
2021/03/11 10:45:46;;;;;;;12.37;3.50;;;;;;;;;;5018596;28;20421;-52
2021/03/11 10:48:12;;;;;;;8.80;2.47;;;;;;;;;;5024422;28;20431;-52
2021/03/11 10:50:44;;;;;;;15.10;3.73;;;;;;;;;;5021107;28;20419;-53
2021/03/11 10:53:11;;;;;;;9.27;3.60;;;;;;;;;;5023265;28;20415;-52
2021/03/11 10:55:39;;;;;;;12.50;3.40;;;;;;;;;;5022722;28;20411;-52
2021/03/11 10:58:05;;;;;;;11.83;2.67;;;;;;;;;;5023981;28;20418;-52
2021/03/11 11:00:35;;;;;;;19.00;3.90;;;;;;;;;;5024571;28;20431;-53
2021/03/11 11:03:03;;;;;;;12.27;3.20;;;;;;;;;;5031678;28;20497;-51
2021/03/11 11:05:29;;;;;;;6.40;2.33;;;;;;;;;;5044277;28;20377;-52
2021/03/11 11:07:55;;;;;;;8.60;2.90;;;;;;;;;;5043375;28;20400;-52
2021/03/11 11:10:25;;;;;;;6.80;2.67;;;;;;;;;;5042962;28;20381;-52
2021/03/11 11:12:51;;;;;;;9.63;3.00;;;;;;;;;;5041568;28;20402;-51
2021/03/11 11:15:18;;;;;;;11.20;3.40;;;;;;;;;;5020612;28;20390;-52
2021/03/11 11:17:44;;;;;;;9.97;2.77;;;;;;;;;;5023039;28;20429;-52
2021/03/11 11:20:11;;;;;;;8.93;3.27;;;;;;;;;;5020806;28;20411;-52
2021/03/11 11:22:37;;;;;;;8.70;2.63;;;;;;;;;;5023675;28;20378;-52
2021/03/11 11:25:04;;;;;;;15.00;3.30;;;;;;;;;;5023971;28;20467;-52
2021/03/11 11:27:30;;;;;;;12.60;2.43;;;;;;;;;;5024096;28;20407;-52
2021/03/11 11:29:57;;;;;;;9.37;3.00;;;;;;;;;;5020402;28;20469;-51
2021/03/11 11:32:23;;;;;;;12.67;3.03;;;;;;;;;;5023160;28;20429;-51
2021/03/11 11:35:10;;;;;;;13.80;2.67;;;;;;;;;;5040395;28;20430;-51
2021/03/11 11:37:37;;;;;;;15.40;2.93;;;;;;;;;;5041062;28;20433;-51
2021/03/11 11:40:04;;;;;;;16.60;2.73;;;;;;;;;;5041995;28;20406;-51
2021/03/11 11:42:30;;;;;;;7.70;2.00;;;;;;;;;;5040496;28;20494;-51
2021/03/11 11:44:57;;;;;;;7.97;3.13;;;;;;;;;;5016705;28;20505;-52
2021/03/11 11:47:23;;;;;;;8.97;2.57;;;;;;;;;;5021919;28;20911;-52
2021/03/11 11:49:49;;;;;;;10.70;3.57;;;;;;;;;;5022435;28;20434;-51
2021/03/11 11:52:15;;;;;;;6.70;2.40;;;;;;;;;;5022060;28;20407;-52
2021/03/11 11:54:40;;;;;;;9.53;3.00;;;;;;;;;;5022185;28;20386;-52
2021/03/11 11:57:07;;;;;;;12.37;2.87;;;;;;;;;;5022352;28;20435;-51
2021/03/11 11:59:34;;;;;;;8.07;2.40;;;;;;;;;;5019276;28;20459;-51
2021/03/11 12:02:00;;;;;;;5.37;2.40;;;;;;;;;;5020032;28;20452;-51
2021/03/11 12:04:26;;;;;;;6.10;2.40;;;;;;;;;;5039188;28;20932;-51
2021/03/11 12:06:52;;;;;;;6.13;2.50;;;;;;;;;;5043591;28;20446;-52
2021/03/11 12:09:19;;;;;;;6.50;3.67;;;;;;;;;;5044229;28;20423;-52
2021/03/11 12:11:45;;;;;;;12.77;3.20;;;;;;;;;;5044505;28;20399;-51
2021/03/11 12:14:11;;;;;;;8.13;3.00;;;;;;;;;;5044294;28;20447;-52
2021/03/11 12:16:37;;;;;;;9.83;2.67;;;;;;;;;;5041817;28;21081;-52
2021/03/11 12:19:05;;;;;;;13.70;2.77;;;;;;;;;;5019133;28;20898;-50
2021/03/11 12:21:32;;;;;;;11.03;3.23;;;;;;;;;;5016371;28;20941;-53
2021/03/11 12:23:58;;;;;;;9.13;3.00;;;;;;;;;;5013996;28;20512;-51
2021/03/11 12:26:24;;;;;;;7.83;3.57;;;;;;;;;;5012327;28;20438;-53
2021/03/11 12:28:50;;;;;;;7.43;2.87;;;;;;;;;;5011557;28;20460;-52
2021/03/11 12:31:16;;;;;;;12.73;2.57;;;;;;;;;;5011818;28;20461;-52
2021/03/11 12:33:42;;;;;;;16.57;3.80;;;;;;;;;;5009924;28;20453;-52
2021/03/11 12:36:10;;;;;;;10.03;2.67;;;;;;;;;;5030879;28;20497;-50
2021/03/11 12:38:37;;;;;;;8.07;3.03;;;;;;;;;;5024905;28;20442;-51
2021/03/11 12:41:04;;;;;;;13.40;3.07;;;;;;;;;;5006597;28;20903;-49
2021/03/11 12:43:31;;;;;;;10.20;3.00;;;;;;;;;;5011448;28;20429;-50
2021/03/11 12:45:57;;;;;;;10.33;3.43;;;;;;;;;;5011179;28;20385;-50
2021/03/11 12:48:23;;;;;;;8.50;2.80;;;;;;;;;;5011200;28;20496;-50
2021/03/11 12:50:49;;;;;;;14.63;3.20;;;;;;;;;;5011417;28;20449;-49
2021/03/11 12:53:19;;;;;;;10.07;2.70;;;;;;;;;;5011353;28;20403;-49
2021/03/11 12:55:45;;;;;;;13.90;3.33;;;;;;;;;;5011240;28;20370;-50
2021/03/11 12:58:11;;;;;;;12.43;3.13;;;;;;;;;;5011116;28;20397;-50
2021/03/11 13:00:38;;;;;;;12.17;3.53;;;;;;;;;;5011165;28;20446;-50
2021/03/11 13:03:04;;;;;;;9.07;2.37;;;;;;;;;;5011189;28;20403;-50
2021/03/11 13:05:30;;;;;;;12.27;2.90;;;;;;;;;;5022967;28;20441;-49
2021/03/11 13:07:56;;;;;;;12.00;3.00;;;;;;;;;;5029357;28;20482;-49
2021/03/11 13:10:22;;;;;;;7.77;2.80;;;;;;;;;;5031161;28;20771;-50
2021/03/11 13:12:49;;;;;;;7.13;2.63;;;;;;;;;;5031014;28;20456;-49
2021/03/11 13:15:18;;;;;;;11.13;2.80;;;;;;;;;;5031307;28;20413;-50
2021/03/11 13:17:44;;;;;;;6.90;2.80;;;;;;;;;;5031002;28;20425;-50
2021/03/11 13:20:10;;;;;;;6.83;2.87;;;;;;;;;;5030919;28;20402;-49
2021/03/11 13:22:36;;;;;;;7.67;2.57;;;;;;;;;;5030951;28;20406;-50
2021/03/11 13:25:03;;;;;;;8.00;2.90;;;;;;;;;;5030797;28;20612;-49
2021/03/11 13:27:29;;;;;;;4.67;2.10;;;;;;;;;;5030558;28;20399;-50
2021/03/11 13:29:55;;;;;;;7.87;2.63;;;;;;;;;;5030519;28;20556;-49
2021/03/11 13:32:21;;;;;;;10.83;2.93;;;;;;;;;;5030877;28;20509;-49
2021/03/11 13:34:47;;;;;;;7.57;2.60;;;;;;;;;;5029091;28;20428;-50
2021/03/11 13:37:13;;;;;;;5.83;2.13;;;;;;;;;;5037351;28;20775;-53
2021/03/11 13:39:42;;;;;;;12.00;3.13;;;;;;;;;;5036920;28;20418;-53
2021/03/11 13:42:08;;;;;;;10.97;2.43;;;;;;;;;;5037041;28;20409;-52
2021/03/11 13:44:34;;;;;;;9.90;2.40;;;;;;;;;;5037747;28;20849;-53
2021/03/11 13:47:00;;;;;;;7.13;2.97;;;;;;;;;;5037131;28;20402;-51
2021/03/11 13:49:26;;;;;;;7.80;2.87;;;;;;;;;;5036821;28;20528;-50
2021/03/11 13:51:52;;;;;;;6.13;2.53;;;;;;;;;;5037005;28;20452;-51
2021/03/11 13:54:18;;;;;;;6.83;2.13;;;;;;;;;;5036938;28;20404;-52
2021/03/11 13:56:44;;;;;;;10.40;2.07;;;;;;;;;;5037047;28;20373;-54
2021/03/11 13:59:10;;;;;;;4.40;2.37;;;;;;;;;;5036669;28;20433;-53
2021/03/11 14:01:36;;;;;;;7.00;2.13;;;;;;;;;;5037030;28;20422;-50
2021/03/11 14:04:02;;;;;;;4.57;1.93;;;;;;;;;;5033406;28;20826;-50
2021/03/11 14:06:28;;;;;;;4.20;2.30;;;;;;;;;;5026943;28;20402;-50
2021/03/11 14:08:54;;;;;;;7.67;2.13;;;;;;;;;;5011237;28;21082;-50
2021/03/11 14:11:20;;;;;;;5.80;2.00;;;;;;;;;;5016893;28;20405;-50
2021/03/11 14:13:46;;;;;;;4.57;2.10;;;;;;;;;;5017121;28;20410;-50
2021/03/11 14:16:12;;;;;;;6.30;2.17;;;;;;;;;;5016994;28;20493;-51
2021/03/11 14:18:38;;;;;;;10.30;2.30;;;;;;;;;;5016774;28;20434;-51
2021/03/11 14:21:05;;;;;;;5.83;2.30;;;;;;;;;;5016757;28;20402;-51
2021/03/11 14:23:32;;;;;;;6.07;2.13;;;;;;;;;;5016915;28;20425;-51
2021/03/11 14:25:59;;;;;;;7.97;2.40;;;;;;;;;;5016962;28;21128;-50
2021/03/11 14:28:25;;;;;;;6.63;2.20;;;;;;;;;;5016139;28;20771;-50
2021/03/11 14:30:51;;;;;;;5.20;1.90;;;;;;;;;;5020599;28;20405;-51
2021/03/11 14:33:17;;;;;;;7.90;2.93;;;;;;;;;;5017792;28;20909;-50
2021/03/11 14:35:45;;;;;;;4.50;2.03;;;;;;;;;;5036462;28;20398;-51
2021/03/11 14:38:13;;;;;;;7.23;2.17;;;;;;;;;;5034298;28;20916;-50
2021/03/11 14:40:39;;;;;;;8.43;2.70;;;;;;;;;;5017168;28;20410;-55